createdAt,value
2022-10-11T00:01:22.786Z,3.90
2022-10-11T00:03:52.295Z,5.03
2022-10-11T00:06:20.260Z,4.85
2022-10-11T00:08:48.258Z,4.65
2022-10-11T00:11:16.311Z,4.97
2022-10-11T00:13:44.293Z,4.60
2022-10-11T00:16:14.301Z,4.60
2022-10-11T00:18:43.248Z,4.95
2022-10-11T00:21:15.123Z,5.22
2022-10-11T00:23:43.718Z,4.78
2022-10-11T00:26:12.505Z,5.38
2022-10-11T00:28:41.591Z,5.82
2022-10-11T00:31:10.982Z,4.70
2022-10-11T00:33:39.040Z,5.05
2022-10-11T00:36:08.762Z,5.60
2022-10-11T00:38:38.518Z,5.60
2022-10-11T00:41:06.815Z,4.82
2022-10-11T00:43:35.014Z,6.55
2022-10-11T00:46:28.421Z,5.25
2022-10-11T00:49:01.886Z,3.67
2022-10-11T00:51:39.019Z,3.72
2022-10-11T00:54:12.777Z,3.28
2022-10-11T00:59:15.145Z,3.03
2022-10-11T01:01:43.312Z,3.13
2022-10-11T01:04:11.342Z,3.78
2022-10-11T01:06:39.335Z,4.20
2022-10-11T01:09:09.667Z,3.22
2022-10-11T01:11:40.581Z,3.60
2022-10-11T01:14:40.341Z,3.03
2022-10-11T01:17:16.956Z,2.97
2022-10-11T01:20:16.633Z,3.97
2022-10-11T01:23:09.998Z,3.38
2022-10-11T01:25:51.164Z,3.05
2022-10-11T01:28:34.227Z,4.00
2022-10-11T01:31:11.547Z,3.38
2022-10-11T01:33:44.491Z,4.50
2022-10-11T01:36:17.524Z,3.95
2022-10-11T01:38:50.976Z,3.47
2022-10-11T01:41:25.127Z,4.03
2022-10-11T01:43:57.982Z,4.38
2022-10-11T01:46:28.439Z,4.30
2022-10-11T01:48:58.994Z,2.97
2022-10-11T01:51:30.354Z,3.42
2022-10-11T01:54:12.346Z,4.03
2022-10-11T01:57:12.405Z,4.05
2022-10-11T01:59:51.494Z,2.45
2022-10-11T02:02:33.741Z,3.60
2022-10-11T02:05:09.936Z,3.25
2022-10-11T02:07:44.402Z,2.30
2022-10-11T02:10:16.861Z,2.80
2022-10-11T02:12:49.018Z,2.65
2022-10-11T02:15:20.348Z,2.55
2022-10-11T02:17:57.589Z,2.85
2022-10-11T02:20:27.436Z,3.38
2022-10-11T02:23:02.095Z,2.78
2022-10-11T02:25:34.000Z,2.72
2022-10-11T02:28:05.212Z,3.10
2022-10-11T02:30:34.965Z,2.70
2022-10-11T02:33:08.076Z,2.60
2022-10-11T02:35:43.194Z,3.03
2022-10-11T02:38:19.843Z,3.08
2022-10-11T02:40:52.759Z,3.05
2022-10-11T02:43:26.119Z,3.30
2022-10-11T02:45:57.791Z,2.17
2022-10-11T02:48:29.404Z,2.85
2022-10-11T02:50:58.171Z,2.60
2022-10-11T02:53:27.753Z,3.30
2022-10-11T02:55:56.939Z,3.22
2022-10-11T02:58:25.611Z,2.53
2022-10-11T03:00:53.743Z,2.75
2022-10-11T03:03:22.030Z,2.60
2022-10-11T03:05:51.380Z,3.22
2022-10-11T03:08:19.368Z,3.10
2022-10-11T03:10:47.705Z,2.67
2022-10-11T03:13:18.265Z,3.28
2022-10-11T03:16:01.947Z,3.45
2022-10-11T03:18:31.371Z,3.53
2022-10-11T03:21:00.762Z,3.13
2022-10-11T03:23:28.745Z,2.97
2022-10-11T03:25:57.101Z,3.97
2022-10-11T03:28:25.120Z,4.40
2022-10-11T03:30:53.653Z,4.05
2022-10-11T03:33:21.752Z,3.38
2022-10-11T03:35:50.456Z,3.67
2022-10-11T03:38:22.554Z,3.63
2022-10-11T03:40:50.515Z,3.83
2022-10-11T03:43:18.830Z,4.32
2022-10-11T03:45:46.870Z,3.80
2022-10-11T03:48:14.879Z,4.38
2022-10-11T03:50:42.878Z,3.80
2022-10-11T03:53:10.865Z,4.35
2022-10-11T03:55:41.285Z,4.65
2022-10-11T03:58:09.624Z,3.85
2022-10-11T04:00:38.227Z,4.05
2022-10-11T04:03:06.286Z,3.72
2022-10-11T04:05:34.316Z,3.85
2022-10-11T04:08:02.363Z,4.47
2022-10-11T04:10:31.161Z,3.58
2022-10-11T04:13:00.627Z,3.42
2022-10-11T04:15:28.573Z,3.40
2022-10-11T04:17:56.521Z,4.47
2022-10-11T04:20:24.482Z,3.00
2022-10-11T04:22:52.527Z,2.90
2022-10-11T04:25:20.518Z,3.28
2022-10-11T04:27:48.693Z,3.45
2022-10-11T04:30:18.303Z,4.05
2022-10-11T04:32:46.382Z,3.15
2022-10-11T04:35:14.452Z,3.40
2022-10-11T04:37:42.441Z,3.70
2022-10-11T04:40:11.910Z,4.32
2022-10-11T04:42:39.872Z,3.40
2022-10-11T04:45:09.498Z,2.95
2022-10-11T04:47:40.529Z,2.72
2022-10-11T04:50:08.927Z,3.50
2022-10-11T04:52:36.962Z,3.53
2022-10-11T04:55:05.473Z,2.40
2022-10-11T04:57:33.847Z,2.90
2022-10-11T05:00:01.809Z,2.53
2022-10-11T05:02:29.839Z,4.22
2022-10-11T05:04:59.315Z,3.90
2022-10-11T05:07:27.309Z,2.67
2022-10-11T05:09:55.477Z,4.28
2022-10-11T05:12:23.465Z,2.83
2022-10-11T05:14:51.429Z,3.40
2022-10-11T05:17:19.427Z,3.85
2022-10-11T05:19:47.450Z,4.00
2022-10-11T05:22:16.970Z,3.00
2022-10-11T05:24:44.906Z,2.15
2022-10-11T05:27:12.899Z,2.30
2022-10-11T05:29:40.825Z,2.85
2022-10-11T05:32:08.792Z,2.53
2022-10-11T05:34:36.746Z,2.58
2022-10-11T05:37:04.714Z,2.38
2022-10-11T05:39:34.109Z,2.38
2022-10-11T05:42:03.187Z,2.08
2022-10-11T05:44:32.511Z,2.65
2022-10-11T05:47:00.453Z,2.45
2022-10-11T05:49:28.465Z,2.53
2022-10-11T05:51:56.369Z,2.53
2022-10-11T05:54:24.380Z,2.95
2022-10-11T05:56:53.730Z,2.78
2022-10-11T05:59:21.683Z,3.50
2022-10-11T06:01:50.617Z,5.00
2022-10-11T06:04:19.107Z,3.90
2022-10-11T06:06:47.171Z,4.13
2022-10-11T06:09:15.118Z,3.55
2022-10-11T06:11:44.197Z,4.57
2022-10-11T06:14:13.765Z,3.00
2022-10-11T06:16:41.747Z,3.85
2022-10-11T06:19:09.747Z,4.60
2022-10-11T06:21:37.732Z,4.25
2022-10-11T06:24:06.608Z,5.28
2022-10-11T06:26:35.073Z,4.40
2022-10-11T06:29:06.557Z,4.25
2022-10-11T06:31:36.736Z,4.57
2022-10-11T06:34:05.060Z,4.13
2022-10-11T06:36:33.198Z,4.47
2022-10-11T06:39:01.595Z,4.18
2022-10-11T06:41:31.338Z,3.63
2022-10-11T06:43:59.628Z,4.43
2022-10-11T06:46:28.989Z,3.83
2022-10-11T06:48:58.379Z,5.07
2022-10-11T06:51:28.715Z,4.93
2022-10-11T06:53:58.823Z,5.20
2022-10-11T06:56:28.315Z,4.25
2022-10-11T06:58:57.514Z,3.38
2022-10-11T07:01:25.965Z,4.45
2022-10-11T07:03:55.991Z,4.75
2022-10-11T07:06:27.785Z,3.05
2022-10-11T07:08:55.835Z,3.85
2022-10-11T07:11:25.637Z,4.78
2022-10-11T07:13:58.048Z,3.92
2022-10-11T07:16:26.449Z,4.68
2022-10-11T07:19:15.327Z,4.13
2022-10-11T07:21:44.730Z,5.93
2022-10-11T07:24:12.627Z,3.88
2022-10-11T07:26:40.963Z,6.43
2022-10-11T07:29:10.105Z,5.95
2022-10-11T07:31:39.651Z,5.70
2022-10-11T07:34:07.702Z,5.32
2022-10-11T07:36:35.595Z,3.67
2022-10-11T07:39:07.719Z,5.15
2022-10-11T07:41:38.151Z,5.20
2022-10-11T07:44:08.842Z,7.45
2022-10-11T07:46:37.007Z,8.35
2022-10-11T07:49:04.984Z,6.00
2022-10-11T07:54:20.973Z,9.95
2022-10-11T07:56:48.940Z,11.45
2022-10-11T07:59:16.936Z,9.90
2022-10-11T08:01:45.447Z,9.38
2022-10-11T08:04:13.499Z,12.25
2022-10-11T08:06:41.483Z,12.40
2022-10-11T08:09:10.397Z,11.13
2022-10-11T08:11:40.508Z,12.35
2022-10-11T08:16:56.636Z,12.68
2022-10-11T08:19:24.589Z,9.95
2022-10-11T08:21:52.585Z,12.18
2022-10-11T08:24:21.172Z,12.98
2022-10-11T08:43:51.155Z,12.52
2022-10-11T08:46:25.108Z,15.98
2022-10-11T08:48:53.772Z,14.57
2022-10-11T08:51:26.118Z,12.98
2022-10-11T08:54:04.710Z,16.02
2022-10-11T08:56:38.936Z,15.07
2022-10-11T08:59:23.141Z,14.27
2022-10-11T09:01:57.814Z,14.73
2022-10-11T09:04:26.124Z,14.18
2022-10-11T09:07:05.133Z,12.88
2022-10-11T09:09:54.544Z,12.95
2022-10-11T09:12:34.286Z,12.02
2022-10-11T09:15:22.330Z,10.65
2022-10-11T09:18:12.707Z,12.13
2022-10-11T09:21:10.501Z,15.80
2022-10-11T09:24:27.010Z,17.40
2022-10-11T09:30:41.790Z,22.45
2022-10-11T09:33:18.811Z,20.52
2022-10-11T09:35:49.955Z,22.05
2022-10-11T09:51:44.909Z,21.48
2022-10-11T09:52:55.297Z,23.27
2022-10-11T09:55:53.391Z,22.13
2022-10-11T10:37:02.453Z,22.45
2022-10-11T10:39:58.518Z,21.85
2022-10-11T10:42:28.655Z,22.75
2022-10-11T10:45:00.362Z,22.45
2022-10-11T10:47:48.363Z,22.27
2022-10-11T10:50:20.249Z,23.13
2022-10-11T10:52:56.367Z,24.00
2022-10-11T10:55:38.242Z,22.77
2022-10-11T10:58:22.947Z,20.88
2022-10-11T11:01:00.086Z,22.33
2022-10-11T11:10:13.829Z,24.13
2022-10-11T11:12:50.910Z,22.60
2022-10-11T11:15:31.241Z,23.25
2022-10-11T11:18:20.501Z,24.60
2022-10-11T11:21:09.432Z,24.80
2022-10-11T11:23:45.418Z,23.40
2022-10-11T11:26:20.419Z,25.00
2022-10-11T11:29:07.798Z,23.13
2022-10-11T11:31:52.009Z,22.55
2022-10-11T11:34:25.967Z,22.33
2022-10-11T11:36:58.131Z,24.42
2022-10-11T11:39:32.050Z,31.02
2022-10-11T11:42:05.920Z,27.60
2022-10-11T11:44:39.860Z,22.65
2022-10-11T11:47:17.911Z,21.52
2022-10-11T11:49:50.753Z,21.42
2022-10-11T11:52:28.157Z,26.87
2022-10-11T11:58:22.183Z,23.35
2022-10-11T12:00:59.809Z,20.90
2022-10-11T12:03:41.715Z,20.08
2022-10-11T12:06:25.595Z,18.63
2022-10-11T12:09:04.318Z,24.40
2022-10-11T12:11:43.626Z,18.42
2022-10-11T12:14:19.321Z,18.02
2022-10-11T12:17:07.350Z,18.73
2022-10-11T12:19:38.532Z,18.67
2022-10-11T12:22:37.516Z,19.02
2022-10-11T12:25:39.119Z,18.58
2022-10-11T12:28:48.833Z,20.73
2022-10-11T12:31:24.432Z,18.52
2022-10-11T12:34:03.911Z,16.98
2022-10-11T12:36:41.846Z,21.02
2022-10-11T12:39:43.644Z,18.05
2022-10-11T13:21:00.804Z,16.80
2022-10-11T14:33:48.354Z,9.02
2022-10-11T14:36:16.536Z,8.27
2022-10-11T14:38:44.799Z,8.57
2022-10-11T14:41:12.962Z,10.18
2022-10-11T14:43:42.466Z,9.95
2022-10-11T14:46:20.617Z,9.95
2022-10-11T14:48:56.846Z,9.60
2022-10-11T14:51:29.631Z,9.93
2022-10-11T14:53:57.772Z,9.20
2022-10-11T14:56:26.151Z,11.25
2022-10-11T14:58:55.840Z,8.90
2022-10-11T15:01:24.019Z,8.05
2022-10-11T15:03:52.362Z,8.18
2022-10-11T15:06:22.920Z,7.68
2022-10-11T15:08:51.958Z,8.45
2022-10-11T15:11:22.294Z,8.15
2022-10-11T15:13:50.787Z,8.30
2022-10-11T15:16:22.056Z,10.43
2022-10-11T15:18:52.104Z,8.00
2022-10-11T15:21:21.944Z,8.73
2022-10-11T15:23:50.863Z,8.32
2022-10-11T15:26:21.525Z,7.88
2022-10-11T15:28:50.378Z,7.68
2022-10-11T15:31:19.944Z,8.25
2022-10-11T15:33:48.671Z,9.18
2022-10-11T15:36:18.791Z,8.75
2022-10-11T15:38:47.262Z,7.78
2022-10-11T15:41:16.884Z,7.47
2022-10-11T15:43:46.898Z,7.25
2022-10-11T15:46:17.716Z,7.57
2022-10-11T15:48:47.917Z,8.25
2022-10-11T15:51:15.955Z,7.47
2022-10-11T15:53:43.945Z,6.30
2022-10-11T15:56:17.197Z,7.03
2022-10-11T15:58:45.610Z,7.93
2022-10-11T16:01:16.297Z,8.23
2022-10-11T16:03:46.925Z,7.60
2022-10-11T16:06:15.137Z,8.93
2022-10-11T16:08:43.257Z,6.88
2022-10-11T16:11:12.131Z,7.45
2022-10-11T16:13:40.496Z,8.18
2022-10-11T16:16:10.102Z,8.20
2022-10-11T16:18:38.602Z,8.45
2022-10-11T16:21:10.232Z,8.00
2022-10-11T16:23:39.073Z,7.70
2022-10-11T16:26:10.896Z,8.18
2022-10-11T16:28:40.051Z,8.07
2022-10-11T16:31:09.347Z,8.15
2022-10-11T16:34:32.827Z,8.05
2022-10-11T16:37:02.541Z,8.20
2022-10-11T16:39:30.894Z,8.02
2022-10-11T16:41:58.951Z,7.97
2022-10-11T16:44:28.008Z,7.75
2022-10-11T16:46:56.714Z,8.27
2022-10-11T16:49:27.694Z,7.60
2022-10-11T16:51:59.053Z,8.40
2022-10-11T16:54:29.556Z,8.75
2022-10-11T16:56:58.088Z,9.27
2022-10-11T16:59:26.143Z,8.00
2022-10-11T17:01:54.228Z,8.60
2022-10-11T17:04:22.451Z,8.38
2022-10-11T17:06:51.276Z,8.43
2022-10-11T17:09:19.435Z,9.23
2022-10-11T17:11:49.142Z,10.20
2022-10-11T17:14:17.690Z,9.73
2022-10-11T17:16:46.527Z,9.30
2022-10-11T17:19:17.036Z,9.45
2022-10-11T17:21:45.030Z,9.70
2022-10-11T17:24:13.304Z,9.00
2022-10-11T17:26:42.750Z,7.90
2022-10-11T17:29:16.262Z,9.57
2022-10-11T17:31:48.984Z,8.43
2022-10-11T17:34:20.401Z,9.32
2022-10-11T17:36:49.180Z,8.68
2022-10-11T17:39:19.271Z,8.73
2022-10-11T17:41:47.721Z,9.85
2022-10-11T17:44:18.943Z,9.68
2022-10-11T17:46:47.456Z,9.93
2022-10-11T17:49:15.816Z,9.90
2022-10-11T17:51:43.980Z,10.13
2022-10-11T17:54:13.271Z,10.65
2022-10-11T17:56:42.716Z,9.30
2022-10-11T17:59:18.598Z,8.90
2022-10-11T18:01:46.723Z,10.73
2022-10-11T18:04:16.938Z,10.48
2022-10-11T18:06:46.806Z,8.77
2022-10-11T18:09:17.508Z,9.27
2022-10-11T18:11:45.857Z,9.13
2022-10-11T18:14:14.083Z,9.90
2022-10-11T18:16:43.886Z,10.55
2022-10-11T18:19:14.406Z,9.23
2022-10-11T18:21:42.531Z,11.00
2022-10-11T18:24:14.973Z,10.15
2022-10-11T18:26:43.728Z,11.02
2022-10-11T18:29:12.678Z,10.23
2022-10-11T18:31:40.829Z,9.68
2022-10-11T18:34:13.935Z,10.25
2022-10-11T18:36:41.890Z,9.68
2022-10-11T18:39:13.446Z,9.88
2022-10-11T18:41:44.684Z,9.43
2022-10-11T18:44:15.225Z,11.73
2022-10-11T18:46:44.262Z,13.00
2022-10-11T18:49:14.637Z,13.10
2022-10-11T18:51:43.471Z,12.38
2022-10-11T18:54:16.735Z,14.75
2022-10-11T18:56:48.157Z,13.50
2022-10-11T18:59:16.207Z,13.13
2022-10-11T19:01:45.980Z,13.02
2022-10-11T19:04:16.958Z,13.35
2022-10-11T19:06:48.346Z,12.00
2022-10-11T19:09:21.624Z,11.40
2022-10-11T19:11:50.097Z,12.07
2022-10-11T19:14:19.755Z,11.48
2022-10-11T19:16:51.319Z,11.65
2022-10-11T19:19:22.747Z,11.10
2022-10-11T19:21:51.435Z,12.18
2022-10-11T19:24:21.194Z,11.55
2022-10-11T19:26:49.361Z,12.10
2022-10-11T19:29:19.901Z,12.05
2022-10-11T19:31:51.305Z,11.85
2022-10-11T19:34:21.287Z,12.52
2022-10-11T19:36:50.799Z,11.60
2022-10-11T19:39:19.786Z,12.68
2022-10-11T19:41:47.841Z,10.98
2022-10-11T19:44:16.398Z,12.90
2022-10-11T19:46:51.529Z,12.25
2022-10-11T19:49:25.109Z,11.00
2022-10-11T19:51:55.218Z,11.38
2022-10-11T19:54:23.581Z,11.85
2022-10-11T19:56:51.567Z,11.55
2022-10-11T19:59:19.813Z,12.73
2022-10-11T20:01:52.332Z,12.48
2022-10-11T20:04:50.686Z,12.52
2022-10-11T20:07:11.440Z,11.80
2022-10-11T20:09:39.425Z,12.00
2022-10-11T20:12:07.877Z,13.63
2022-10-11T20:14:35.880Z,12.20
2022-10-11T20:17:03.926Z,12.80
2022-10-11T20:19:33.343Z,12.40
2022-10-11T20:22:01.733Z,12.07
2022-10-11T20:24:33.620Z,12.80
2022-10-11T20:27:03.069Z,12.30
2022-10-11T20:29:31.089Z,12.35
2022-10-11T20:31:59.856Z,12.10
2022-10-11T20:34:28.451Z,33.88
2022-10-11T20:36:57.903Z,20.58
2022-10-11T20:39:26.091Z,17.33
2022-10-11T20:41:54.052Z,15.23
2022-10-11T20:44:22.019Z,21.83
2022-10-11T20:46:49.982Z,14.63
2022-10-11T20:49:19.970Z,14.77
2022-10-11T20:51:48.143Z,14.88
2022-10-11T20:54:18.107Z,12.68
2022-10-11T20:56:46.254Z,14.15
2022-10-11T20:59:14.218Z,16.02
2022-10-11T21:01:42.594Z,14.27
2022-10-11T21:04:17.773Z,15.52
2022-10-11T21:06:45.903Z,15.18
2022-10-11T21:09:16.402Z,16.05
2022-10-11T21:11:46.879Z,15.05
2022-10-11T21:14:15.046Z,14.18
2022-10-11T21:16:43.290Z,14.60
2022-10-11T21:19:16.346Z,14.70
2022-10-11T21:21:50.992Z,15.15
2022-10-11T21:24:21.543Z,14.73
2022-10-11T21:26:50.980Z,14.38
2022-10-11T21:29:19.257Z,14.90
2022-10-11T21:31:47.215Z,16.15
2022-10-11T21:34:15.677Z,15.20
2022-10-11T21:36:43.731Z,14.52
2022-10-11T21:39:11.710Z,15.45
2022-10-11T21:41:42.195Z,16.10
2022-10-11T21:44:11.723Z,17.13
2022-10-11T21:47:05.610Z,15.20
2022-10-11T21:49:27.642Z,16.40
2022-10-11T21:51:56.095Z,15.18
2022-10-11T21:54:24.085Z,17.02
2022-10-11T21:56:52.007Z,15.95
2022-10-11T21:59:22.595Z,15.48
2022-10-11T22:01:50.567Z,15.82
2022-10-11T22:04:18.623Z,15.48
2022-10-11T22:06:46.596Z,14.38
2022-10-11T22:09:14.621Z,16.40
2022-10-11T22:11:42.592Z,15.52
2022-10-11T22:14:10.772Z,15.32
2022-10-11T22:16:40.459Z,15.25
2022-10-11T22:19:08.732Z,16.75
2022-10-11T22:21:39.171Z,16.10
2022-10-11T22:24:12.740Z,17.02
2022-10-11T22:27:12.322Z,17.27
2022-10-11T22:29:34.356Z,15.65
2022-10-11T22:32:04.111Z,15.18
2022-10-11T22:34:33.440Z,17.42
2022-10-11T22:37:09.052Z,16.63
2022-10-11T22:39:37.194Z,16.35
2022-10-11T22:42:05.508Z,17.77
2022-10-11T22:47:35.602Z,17.77
2022-10-11T22:50:06.159Z,17.42
2022-10-11T22:52:34.324Z,16.38
2022-10-11T22:55:02.428Z,16.58
2022-10-11T22:57:30.831Z,16.70
2022-10-11T22:59:58.879Z,15.27
2022-10-11T23:02:26.949Z,16.83
2022-10-11T23:04:56.894Z,15.95
2022-10-11T23:07:25.036Z,16.48
2022-10-11T23:09:53.077Z,15.02
2022-10-11T23:12:21.221Z,13.25
2022-10-11T23:14:49.385Z,13.15
2022-10-11T23:17:17.498Z,12.20
2022-10-11T23:19:45.555Z,11.55
2022-10-11T23:22:15.456Z,11.20
2022-10-11T23:24:43.521Z,10.52
2022-10-11T23:27:11.614Z,11.32
2022-10-11T23:29:41.154Z,10.25
2022-10-11T23:32:10.117Z,9.63
2022-10-11T23:34:38.293Z,10.27
2022-10-11T23:37:06.852Z,9.82
2022-10-11T23:39:36.326Z,10.10
2022-10-11T23:42:04.386Z,9.48
2022-10-11T23:44:32.480Z,10.52
2022-10-11T23:47:00.528Z,10.63
2022-10-11T23:49:28.606Z,10.10
2022-10-11T23:51:57.343Z,10.38
2022-10-11T23:54:25.433Z,8.75
2022-10-11T23:56:54.852Z,7.97
2022-10-11T23:59:22.989Z,8.75
